createdAt,value
2022-10-19T00:00:55.350Z,43.73
2022-10-19T00:04:06.296Z,39.65
2022-10-19T00:07:11.034Z,37.25
2022-10-19T00:10:16.344Z,40.15
2022-10-19T00:13:24.636Z,32.45
2022-10-19T00:16:32.017Z,34.05
2022-10-19T00:19:40.634Z,41.70
2022-10-19T00:22:46.260Z,38.80
2022-10-19T00:25:51.866Z,39.35
2022-10-19T00:28:59.449Z,40.92
2022-10-19T00:32:05.676Z,36.63
2022-10-19T00:35:13.204Z,39.55
2022-10-19T00:38:19.830Z,33.63
2022-10-19T00:41:26.288Z,40.58
2022-10-19T00:44:36.511Z,38.95
2022-10-19T00:47:43.180Z,34.03
2022-10-19T00:50:49.111Z,39.98
2022-10-19T00:53:54.845Z,30.97
2022-10-19T00:57:01.619Z,34.20
2022-10-19T01:00:07.941Z,34.95
2022-10-19T01:03:13.599Z,35.05
2022-10-19T01:06:19.535Z,30.08
2022-10-19T01:09:25.375Z,39.35
2022-10-19T01:12:41.845Z,29.70
2022-10-19T01:16:08.305Z,34.90
2022-10-19T01:19:17.946Z,31.27
2022-10-19T01:22:41.967Z,35.03
2022-10-19T01:26:05.518Z,25.90
2022-10-19T01:29:44.804Z,29.63
2022-10-19T01:33:10.705Z,35.58
2022-10-19T01:36:40.003Z,41.02
2022-10-19T01:40:11.199Z,32.63
2022-10-19T01:43:51.524Z,37.45
2022-10-19T01:47:05.454Z,38.88
2022-10-19T01:50:30.548Z,40.17
2022-10-19T01:53:37.033Z,34.48
2022-10-19T01:56:42.403Z,39.35
2022-10-19T01:59:47.753Z,44.50
2022-10-19T02:02:58.010Z,37.73
2022-10-19T02:06:03.342Z,40.78
2022-10-19T02:09:09.844Z,42.85
2022-10-19T02:12:18.676Z,41.20
2022-10-19T02:15:27.617Z,38.13
2022-10-19T02:18:36.176Z,38.80
2022-10-19T02:21:42.671Z,38.35
2022-10-19T02:24:48.519Z,37.25
2022-10-19T02:27:54.347Z,36.00
2022-10-19T02:31:00.146Z,38.70
2022-10-19T02:34:05.924Z,33.40
2022-10-19T02:37:13.031Z,35.40
2022-10-19T02:40:19.955Z,32.10
2022-10-19T02:43:29.759Z,33.25
2022-10-19T02:46:57.209Z,32.67
2022-10-19T02:50:02.687Z,31.00
2022-10-19T02:53:08.450Z,32.90
2022-10-19T02:56:14.498Z,39.27
2022-10-19T02:59:20.300Z,29.18
2022-10-19T03:02:25.641Z,30.37
2022-10-19T03:05:31.437Z,31.37
2022-10-19T03:08:37.314Z,32.03
2022-10-19T03:11:43.739Z,29.77
2022-10-19T03:14:50.299Z,33.73
2022-10-19T03:17:56.494Z,28.45
2022-10-19T03:21:01.995Z,29.12
2022-10-19T03:24:07.401Z,31.07
2022-10-19T03:27:13.441Z,25.82
2022-10-19T03:30:21.134Z,23.18
2022-10-19T03:33:26.542Z,24.85
2022-10-19T03:36:43.067Z,23.67
2022-10-19T03:39:47.915Z,32.75
2022-10-19T03:42:54.319Z,31.25
2022-10-19T03:46:01.301Z,28.17
2022-10-19T03:49:06.974Z,25.60
2022-10-19T03:52:13.228Z,33.48
2022-10-19T03:55:19.127Z,25.90
2022-10-19T03:58:24.542Z,26.07
2022-10-19T04:01:39.799Z,26.00
2022-10-19T04:04:44.984Z,26.68
2022-10-19T04:07:50.979Z,24.30
2022-10-19T04:10:56.734Z,35.73
2022-10-19T04:14:05.189Z,24.10
2022-10-19T04:17:11.327Z,17.02
2022-10-19T04:20:17.811Z,21.85
2022-10-19T04:23:24.074Z,23.35
2022-10-19T04:26:29.815Z,23.30
2022-10-19T04:29:30.849Z,22.98
2022-10-19T04:32:35.967Z,20.05
2022-10-19T04:35:42.450Z,21.82
2022-10-19T04:38:48.822Z,22.95
2022-10-19T04:41:47.722Z,18.95
2022-10-19T04:44:54.353Z,15.75
2022-10-19T04:48:01.459Z,19.75
2022-10-19T04:51:10.101Z,21.55
2022-10-19T04:54:17.013Z,24.85
2022-10-19T04:57:22.545Z,23.12
2022-10-19T05:00:29.630Z,25.02
2022-10-19T05:03:35.571Z,23.98
2022-10-19T05:06:35.461Z,25.57
2022-10-19T05:09:42.720Z,28.00
2022-10-19T05:12:49.959Z,27.02
2022-10-19T05:15:55.586Z,21.85
2022-10-19T05:19:08.388Z,25.02
2022-10-19T05:22:13.777Z,23.65
2022-10-19T05:25:21.457Z,16.07
2022-10-19T05:28:28.276Z,19.80
2022-10-19T05:31:27.735Z,17.98
2022-10-19T05:34:20.989Z,18.15
2022-10-19T05:37:26.120Z,25.97
2022-10-19T05:40:31.711Z,16.87
2022-10-19T05:43:29.405Z,22.42
2022-10-19T05:46:27.172Z,19.17
2022-10-19T05:49:34.837Z,18.45
2022-10-19T05:52:40.268Z,19.50
2022-10-19T05:55:42.403Z,21.70
2022-10-19T05:58:48.112Z,23.25
2022-10-19T06:01:53.927Z,32.00
2022-10-19T06:04:59.343Z,30.70
2022-10-19T06:07:59.799Z,25.27
2022-10-19T06:11:07.642Z,29.57
2022-10-19T06:14:14.412Z,30.50
2022-10-19T06:17:20.352Z,25.77
2022-10-19T06:20:26.850Z,20.95
2022-10-19T06:23:34.428Z,19.48
2022-10-19T06:26:40.201Z,17.73
2022-10-19T06:29:45.253Z,17.90
2022-10-19T06:32:50.465Z,16.07
2022-10-19T06:35:55.920Z,16.32
2022-10-19T06:39:09.972Z,13.85
2022-10-19T06:42:16.563Z,13.60
2022-10-19T06:45:30.206Z,19.50
2022-10-19T06:48:34.926Z,19.23
2022-10-19T06:51:41.877Z,20.37
2022-10-19T06:54:48.622Z,14.53
2022-10-19T06:57:54.373Z,13.40
2022-10-19T07:00:59.784Z,14.45
2022-10-19T07:04:06.826Z,11.55
2022-10-19T07:07:12.792Z,11.03
2022-10-19T07:10:18.621Z,10.70
2022-10-19T07:13:24.532Z,9.93
2022-10-19T07:16:31.311Z,12.80
2022-10-19T07:19:42.254Z,13.62
2022-10-19T07:22:48.020Z,9.80
2022-10-19T07:25:54.263Z,10.78
2022-10-19T07:29:00.895Z,12.30
2022-10-19T07:32:07.473Z,11.05
2022-10-19T07:35:13.349Z,9.95
2022-10-19T07:38:19.978Z,16.17
2022-10-19T07:41:29.814Z,16.52
2022-10-19T07:44:36.932Z,9.40
2022-10-19T07:47:43.396Z,14.18
2022-10-19T07:50:51.235Z,12.25
2022-10-19T07:53:57.312Z,8.75
2022-10-19T07:57:02.395Z,12.35
2022-10-19T08:00:08.420Z,10.20
2022-10-19T08:06:26.302Z,9.05
2022-10-19T08:09:52.166Z,6.58
2022-10-19T08:12:39.536Z,6.37
2022-10-19T08:15:47.285Z,5.72
2022-10-19T08:18:55.691Z,5.17
2022-10-19T08:22:02.165Z,3.80
2022-10-19T08:25:08.506Z,4.75
2022-10-19T08:28:17.121Z,3.77
2022-10-19T08:31:35.396Z,4.92
2022-10-19T08:34:41.910Z,6.53
2022-10-19T08:37:47.229Z,5.28
2022-10-19T08:40:53.298Z,3.40
2022-10-19T08:44:13.523Z,3.90
2022-10-19T08:48:00.996Z,4.78
2022-10-19T08:50:59.151Z,4.42
2022-10-19T08:54:12.306Z,2.45
2022-10-19T08:57:27.420Z,5.85
2022-10-19T09:03:57.848Z,4.95
2022-10-19T09:07:19.733Z,5.70
2022-10-19T09:10:49.586Z,4.15
2022-10-19T09:14:05.225Z,3.80
2022-10-19T09:17:07.323Z,4.35
2022-10-19T09:20:15.789Z,4.72
2022-10-19T09:23:46.289Z,3.95
2022-10-19T09:26:58.372Z,7.50
2022-10-19T09:30:12.816Z,10.60
2022-10-19T09:33:18.496Z,3.62
2022-10-19T09:36:39.218Z,4.53
2022-10-19T09:39:33.692Z,1.75
2022-10-19T09:42:46.650Z,3.92
2022-10-19T09:46:13.860Z,3.40
2022-10-19T09:49:15.922Z,4.92
2022-10-19T09:52:44.369Z,2.45
2022-10-19T09:55:57.714Z,2.58
2022-10-19T09:59:07.288Z,2.62
2022-10-19T10:02:31.733Z,3.75
2022-10-19T10:05:55.422Z,3.45
2022-10-19T10:09:08.113Z,7.25
2022-10-19T10:12:15.770Z,7.78
2022-10-19T10:15:22.615Z,5.20
2022-10-19T10:18:31.108Z,4.50
2022-10-19T10:21:42.930Z,4.95
2022-10-19T10:24:50.236Z,2.22
2022-10-19T10:27:55.991Z,4.87
2022-10-19T10:31:02.357Z,6.05
2022-10-19T10:34:28.402Z,7.70
2022-10-19T10:37:31.106Z,2.10
2022-10-19T10:40:43.157Z,5.67
2022-10-19T10:47:16.343Z,5.17
2022-10-19T10:50:24.155Z,7.70
2022-10-19T10:53:54.838Z,4.58
2022-10-19T10:56:48.447Z,5.22
2022-10-19T11:00:10.273Z,5.03
2022-10-19T11:03:23.158Z,6.62
2022-10-19T11:06:29.582Z,2.85
2022-10-19T11:09:54.934Z,4.95
2022-10-19T11:13:08.185Z,6.37
2022-10-19T11:16:33.483Z,3.65
2022-10-19T11:19:53.281Z,5.03
2022-10-19T11:23:19.024Z,4.03
2022-10-19T11:26:44.087Z,5.87
2022-10-19T11:30:20.867Z,9.15
2022-10-19T11:33:58.859Z,3.72
2022-10-19T11:37:12.415Z,5.70
2022-10-19T11:41:06.080Z,4.60
2022-10-19T11:43:58.973Z,6.08
2022-10-19T11:47:36.933Z,5.78
2022-10-19T11:51:20.881Z,6.12
2022-10-19T11:54:44.104Z,5.25
2022-10-19T11:57:57.021Z,6.78
2022-10-19T12:01:13.768Z,5.22
2022-10-19T12:04:50.813Z,5.35
2022-10-19T12:08:11.021Z,3.70
2022-10-19T12:14:38.368Z,5.12
2022-10-19T12:17:47.326Z,12.05
2022-10-19T12:21:03.775Z,3.70
2022-10-19T12:24:09.603Z,4.58
2022-10-19T12:27:14.795Z,6.03
2022-10-19T12:30:29.507Z,4.10
2022-10-19T12:33:36.562Z,6.15
2022-10-19T12:37:19.341Z,4.58
2022-10-19T12:40:43.958Z,6.17
2022-10-19T12:44:12.710Z,10.85
2022-10-19T12:47:28.435Z,5.25
2022-10-19T12:50:38.470Z,6.60
2022-10-19T12:53:51.434Z,10.53
2022-10-19T12:57:05.253Z,7.40
2022-10-19T13:00:12.126Z,15.38
2022-10-19T13:03:26.237Z,16.00
2022-10-19T13:06:41.791Z,13.85
2022-10-19T13:09:52.799Z,6.05
2022-10-19T13:13:00.603Z,9.65
2022-10-19T13:16:07.252Z,13.90
2022-10-19T13:19:32.476Z,12.45
2022-10-19T13:22:43.114Z,19.65
2022-10-19T13:25:53.121Z,7.83
2022-10-19T13:29:08.042Z,11.97
2022-10-19T13:32:34.964Z,16.42
2022-10-19T13:35:49.487Z,13.75
2022-10-19T13:39:17.255Z,12.47
2022-10-19T13:42:40.994Z,9.83
2022-10-19T13:45:47.772Z,17.30
2022-10-19T13:49:32.887Z,27.77
2022-10-19T13:52:45.877Z,17.70
2022-10-19T13:56:15.087Z,6.45
2022-10-19T14:00:02.098Z,7.33
2022-10-19T14:03:40.650Z,8.38
2022-10-19T14:06:58.885Z,16.37
2022-10-19T14:10:33.061Z,11.18
2022-10-19T14:13:36.421Z,20.40
2022-10-19T14:16:42.612Z,12.55
2022-10-19T14:19:59.040Z,27.25
2022-10-19T14:23:05.029Z,20.17
2022-10-19T14:26:12.993Z,21.55
2022-10-19T14:29:17.919Z,14.30
2022-10-19T14:32:25.459Z,11.83
2022-10-19T14:35:47.813Z,16.95
2022-10-19T14:38:55.326Z,16.42
2022-10-19T14:42:03.028Z,14.43
2022-10-19T14:45:08.896Z,19.85
2022-10-19T14:48:23.916Z,21.95
2022-10-19T14:52:05.662Z,14.38
2022-10-19T14:55:12.776Z,10.80
2022-10-19T14:58:18.910Z,21.87
2022-10-19T15:01:24.655Z,19.65
2022-10-19T15:04:36.199Z,17.73
2022-10-19T15:07:57.119Z,8.78
2022-10-19T15:11:02.885Z,25.17
2022-10-19T15:14:16.375Z,16.70
2022-10-19T15:17:31.884Z,16.73
2022-10-19T15:21:08.270Z,20.97
2022-10-19T15:24:06.128Z,28.05
2022-10-19T15:27:12.558Z,15.88
2022-10-19T15:30:35.062Z,19.15
2022-10-19T15:33:41.070Z,14.40
2022-10-19T15:36:47.721Z,14.87
2022-10-19T15:39:53.318Z,13.93
2022-10-19T15:42:59.315Z,29.95
2022-10-19T15:46:06.179Z,26.97
2022-10-19T15:49:18.344Z,15.70
2022-10-19T15:52:31.705Z,22.27
2022-10-19T15:55:36.962Z,38.85
2022-10-19T15:58:41.846Z,44.48
2022-10-19T16:01:51.115Z,41.73
2022-10-19T16:04:54.654Z,51.23
2022-10-19T16:07:59.564Z,42.85
2022-10-19T16:11:05.944Z,44.03
2022-10-19T16:14:12.205Z,54.45
2022-10-19T16:17:18.259Z,53.10
2022-10-19T16:20:26.760Z,53.55
2022-10-19T16:23:31.945Z,54.70
2022-10-19T16:26:39.611Z,46.73
2022-10-19T16:29:47.603Z,53.78
2022-10-19T16:32:54.506Z,49.70
2022-10-19T16:36:00.646Z,57.45
2022-10-19T16:39:05.958Z,49.30
2022-10-19T16:42:11.423Z,38.90
2022-10-19T16:45:11.029Z,40.35
2022-10-19T16:48:21.845Z,48.05
2022-10-19T16:51:40.992Z,45.15
2022-10-19T16:54:47.060Z,47.95
2022-10-19T16:57:53.676Z,47.33
2022-10-19T17:01:00.933Z,36.48
2022-10-19T17:04:07.307Z,39.63
2022-10-19T17:07:12.596Z,39.65
2022-10-19T17:10:19.452Z,41.23
2022-10-19T17:13:25.388Z,47.43
2022-10-19T17:16:30.974Z,42.08
2022-10-19T17:19:36.117Z,43.68
2022-10-19T17:22:43.146Z,45.10
2022-10-19T17:25:48.578Z,42.23
2022-10-19T17:28:56.394Z,43.68
2022-10-19T17:32:01.477Z,54.73
2022-10-19T17:35:09.915Z,43.78
2022-10-19T17:38:14.796Z,31.27
2022-10-19T17:41:30.152Z,25.02
2022-10-19T17:44:36.951Z,22.27
2022-10-19T17:47:43.188Z,24.57
2022-10-19T17:50:49.642Z,21.17
2022-10-19T17:53:54.677Z,16.80
2022-10-19T17:57:00.837Z,21.33
2022-10-19T18:00:09.562Z,24.30
2022-10-19T18:03:15.876Z,22.52
2022-10-19T18:06:26.917Z,16.67
2022-10-19T18:09:32.956Z,16.30
2022-10-19T18:12:39.331Z,15.93
2022-10-19T18:15:44.764Z,15.85
2022-10-19T18:18:52.671Z,21.10
2022-10-19T18:21:59.943Z,19.37
2022-10-19T18:25:06.061Z,26.82
2022-10-19T18:28:13.061Z,16.62
2022-10-19T18:31:37.597Z,18.67
2022-10-19T18:34:43.868Z,19.82
2022-10-19T18:37:43.091Z,24.35
2022-10-19T18:43:57.310Z,18.57
2022-10-19T18:47:03.799Z,20.48
2022-10-19T18:50:09.749Z,21.10
2022-10-19T18:53:16.437Z,23.22
2022-10-19T18:56:24.383Z,26.20
2022-10-19T18:59:30.173Z,32.35
2022-10-19T19:02:46.332Z,30.62
2022-10-19T19:05:44.226Z,24.72
2022-10-19T19:08:51.483Z,27.73
2022-10-19T19:12:00.465Z,21.40
2022-10-19T19:15:00.462Z,24.98
2022-10-19T19:18:09.158Z,22.02
2022-10-19T19:21:16.957Z,24.60
2022-10-19T19:24:22.703Z,28.55
2022-10-19T19:27:32.110Z,23.92
2022-10-19T19:30:37.037Z,29.18
2022-10-19T19:33:42.877Z,23.02
2022-10-19T19:36:50.579Z,30.97
2022-10-19T19:39:57.380Z,24.50
2022-10-19T19:43:03.763Z,24.37
2022-10-19T19:46:18.905Z,30.15
2022-10-19T19:49:28.022Z,20.90
2022-10-19T19:52:40.134Z,22.48
2022-10-19T19:55:42.529Z,24.52
2022-10-19T19:58:49.083Z,26.65
2022-10-19T20:01:56.298Z,29.77
2022-10-19T20:05:01.246Z,29.18
2022-10-19T20:08:07.481Z,30.00
2022-10-19T20:11:23.349Z,29.00
2022-10-19T20:14:30.464Z,32.95
2022-10-19T20:17:36.853Z,33.88
2022-10-19T20:20:42.704Z,42.43
2022-10-19T20:23:47.530Z,35.33
2022-10-19T20:26:53.410Z,35.35
2022-10-19T20:30:02.536Z,34.90
2022-10-19T20:33:09.032Z,29.92
2022-10-19T20:36:23.803Z,31.75
2022-10-19T20:39:29.995Z,35.70
2022-10-19T20:42:35.237Z,39.27
2022-10-19T20:45:43.494Z,39.55
2022-10-19T20:48:50.850Z,50.45
2022-10-19T20:51:57.470Z,66.60
2022-10-19T20:55:04.264Z,56.40
2022-10-19T20:58:10.868Z,60.23
2022-10-19T21:01:28.737Z,65.90
2022-10-19T21:04:34.638Z,62.80
2022-10-19T21:07:41.239Z,62.83
2022-10-19T21:10:47.814Z,50.33
2022-10-19T21:13:53.784Z,52.58
2022-10-19T21:17:00.748Z,55.85
2022-10-19T21:20:06.908Z,47.60
2022-10-19T21:23:13.826Z,54.18
2022-10-19T21:26:19.280Z,51.60
2022-10-19T21:29:25.735Z,41.08
2022-10-19T21:32:32.755Z,41.58
2022-10-19T21:35:39.192Z,40.00
2022-10-19T21:38:45.867Z,37.20
2022-10-19T21:41:52.463Z,34.10
2022-10-19T21:45:01.455Z,32.30
2022-10-19T21:48:08.583Z,32.17
2022-10-19T21:51:13.524Z,30.72
2022-10-19T21:54:28.657Z,26.97
2022-10-19T21:57:34.722Z,28.45
2022-10-19T22:00:40.832Z,26.00
2022-10-19T22:03:46.786Z,32.48
2022-10-19T22:06:52.138Z,46.55
2022-10-19T22:09:58.201Z,24.45
2022-10-19T22:13:04.139Z,31.57
2022-10-19T22:16:02.769Z,39.88
2022-10-19T22:19:02.532Z,56.63
2022-10-19T22:22:08.966Z,49.13
2022-10-19T22:25:14.624Z,36.17
2022-10-19T22:28:19.475Z,41.83
2022-10-19T22:31:25.529Z,37.25
2022-10-19T22:34:32.681Z,35.45
2022-10-19T22:37:38.325Z,33.73
2022-10-19T22:40:44.369Z,38.73
2022-10-19T22:43:50.204Z,37.70
2022-10-19T22:46:56.552Z,42.53
2022-10-19T22:50:02.385Z,34.13
2022-10-19T22:53:02.358Z,34.95
2022-10-19T22:55:56.955Z,36.98
2022-10-19T22:59:02.706Z,43.68
2022-10-19T23:02:09.001Z,35.13
2022-10-19T23:05:14.072Z,37.93
2022-10-19T23:08:19.606Z,35.28
2022-10-19T23:11:25.575Z,27.87
2022-10-19T23:14:32.008Z,34.43
2022-10-19T23:17:38.730Z,35.85
2022-10-19T23:20:45.068Z,32.05
2022-10-19T23:23:50.979Z,38.15
2022-10-19T23:26:56.820Z,43.78
2022-10-19T23:30:03.479Z,36.83
2022-10-19T23:33:08.806Z,37.60
2022-10-19T23:36:29.249Z,36.90
2022-10-19T23:39:35.876Z,31.00
2022-10-19T23:42:41.373Z,41.92
2022-10-19T23:45:46.886Z,35.70
2022-10-19T23:48:53.798Z,32.38
2022-10-19T23:52:01.126Z,36.53
2022-10-19T23:55:07.891Z,36.10
2022-10-19T23:58:13.374Z,39.23
